Terminal Aerodrome Forecast
Issued by NWS

Home | Current Version | Previous Version | Text Only | Print | Product List | Glossary On
Versions: 1 2 3 4 5 6 7 8 9 10 11 12 13 14 15 16 17 18 19 20
000
FTUS46 KMTR 031735
TAFMRY
TAF
KMRY 031735Z 0318/0418 28007KT P6SM FEW016
     FM032000 28010G18KT P6SM FEW018
     FM040500 23008KT P6SM FEW015
     FM041200 25010KT P6SM BKN015
     FM041700 27011G18KT P6SM FEW018=

USA.gov is the U.S. government's official web portal to all federal, state and local government web resources and services.